createdAt,value
2016-07-30T00:00:47.346Z,8.43
2016-07-30T00:01:47.343Z,8.52
2016-07-30T00:02:47.336Z,8.57
2016-07-30T00:03:47.324Z,8.54
2016-07-30T00:04:47.320Z,8.46
2016-07-30T00:05:47.307Z,8.58
2016-07-30T00:06:47.307Z,8.6
2016-07-30T00:07:47.301Z,8.64
2016-07-30T00:08:47.305Z,8.52
2016-07-30T00:09:47.290Z,8.46
2016-07-30T00:10:47.278Z,8.45
2016-07-30T00:11:47.272Z,8.45
2016-07-30T00:12:47.263Z,8.4
2016-07-30T00:13:47.254Z,8.29
2016-07-30T00:14:47.261Z,8.36
2016-07-30T00:15:47.253Z,8.46
2016-07-30T00:16:47.226Z,8.45
2016-07-30T00:17:47.202Z,8.46
2016-07-30T00:18:47.230Z,8.52
2016-07-30T00:19:47.211Z,8.52
2016-07-30T00:20:47.209Z,8.57
2016-07-30T00:21:47.210Z,8.58
2016-07-30T00:22:47.169Z,8.55
2016-07-30T00:23:47.167Z,8.52
2016-07-30T00:24:47.161Z,8.46
2016-07-30T00:25:47.151Z,8.49
2016-07-30T00:26:47.151Z,8.61
2016-07-30T00:27:47.154Z,8.68
2016-07-30T00:28:47.144Z,8.8
2016-07-30T00:29:47.143Z,8.89
2016-07-30T00:30:47.139Z,8.85
2016-07-30T00:31:47.104Z,8.83
2016-07-30T00:32:47.110Z,8.85
2016-07-30T00:33:47.103Z,8.96
2016-07-30T00:34:47.098Z,9.06
2016-07-30T00:35:47.096Z,8.94
2016-07-30T00:36:47.079Z,8.91
2016-07-30T00:37:47.064Z,8.98
2016-07-30T00:38:47.084Z,9
2016-07-30T00:39:47.056Z,9.12
2016-07-30T00:40:47.061Z,9.03
2016-07-30T00:41:47.047Z,9.12
2016-07-30T00:42:47.040Z,9.08
2016-07-30T00:43:47.047Z,9.08
2016-07-30T00:44:47.018Z,8.98
2016-07-30T00:45:47.005Z,8.98
2016-07-30T00:46:47.003Z,8.96
2016-07-30T00:47:47.011Z,8.88
2016-07-30T00:48:47.005Z,9.01
2016-07-30T00:49:46.977Z,8.97
2016-07-30T00:50:46.983Z,9.13
2016-07-30T00:51:46.949Z,9.13
2016-07-30T00:52:46.960Z,9.12
2016-07-30T00:53:46.972Z,9.15
2016-07-30T00:54:46.944Z,9.06
2016-07-30T00:55:46.940Z,9.15
2016-07-30T00:56:46.937Z,9.16
2016-07-30T00:57:46.929Z,9.12
2016-07-30T00:58:46.924Z,9.22
2016-07-30T00:59:46.911Z,9.22
2016-07-30T01:00:46.913Z,9.19
2016-07-30T01:01:46.895Z,9.17
2016-07-30T01:02:46.903Z,9.19
2016-07-30T01:03:46.872Z,9.15
2016-07-30T01:04:46.880Z,9.04
2016-07-30T01:05:46.853Z,9.03
2016-07-30T01:06:46.845Z,9
2016-07-30T01:07:46.852Z,9.03
2016-07-30T01:08:46.852Z,9
2016-07-30T01:09:46.843Z,9
2016-07-30T01:10:46.851Z,9.04
2016-07-30T01:11:46.830Z,9.03
2016-07-30T01:12:46.818Z,9.04
2016-07-30T01:13:46.827Z,9.1
2016-07-30T01:14:46.813Z,9.08
2016-07-30T01:15:46.816Z,9.04
2016-07-30T01:16:46.809Z,8.94
2016-07-30T01:17:46.773Z,8.98
2016-07-30T01:18:46.760Z,9.03
2016-07-30T01:19:46.761Z,9.08
2016-07-30T01:20:46.752Z,8.97
2016-07-30T01:21:46.755Z,8.91
2016-07-30T01:22:46.752Z,8.89
2016-07-30T01:23:46.753Z,8.97
2016-07-30T01:24:46.733Z,8.93
2016-07-30T01:25:46.731Z,9.01
2016-07-30T01:26:46.718Z,8.97
2016-07-30T01:27:46.732Z,8.97
2016-07-30T01:28:46.702Z,8.97
2016-07-30T01:29:46.678Z,8.96
2016-07-30T01:30:46.696Z,8.93
2016-07-30T01:31:46.673Z,8.88
2016-07-30T01:32:46.702Z,8.96
2016-07-30T01:33:46.672Z,8.91
2016-07-30T01:34:46.651Z,8.86
2016-07-30T01:35:46.651Z,8.8
2016-07-30T01:36:46.666Z,8.76
2016-07-30T01:37:46.639Z,8.8
2016-07-30T01:38:46.649Z,8.88
2016-07-30T01:39:46.636Z,8.79
2016-07-30T01:40:46.623Z,8.83
2016-07-30T01:41:46.616Z,8.83
2016-07-30T01:42:46.613Z,8.76
2016-07-30T01:43:46.585Z,8.83
2016-07-30T01:44:46.604Z,8.76
2016-07-30T01:45:46.600Z,8.76
2016-07-30T01:46:46.573Z,8.73
2016-07-30T01:47:46.566Z,8.68
2016-07-30T01:48:46.566Z,8.86
2016-07-30T01:49:46.547Z,8.73
2016-07-30T01:50:46.558Z,8.76
2016-07-30T01:51:46.542Z,8.7
2016-07-30T01:52:46.549Z,8.82
2016-07-30T01:53:46.529Z,8.73
2016-07-30T01:54:46.509Z,8.73
2016-07-30T01:55:46.515Z,8.68
2016-07-30T01:56:47.204Z,8.79
2016-07-30T01:57:46.481Z,8.76
2016-07-30T01:58:46.480Z,8.71
2016-07-30T01:59:46.484Z,8.73
2016-07-30T02:00:46.494Z,8.71
2016-07-30T02:01:46.451Z,8.65
2016-07-30T02:02:46.470Z,8.7
2016-07-30T02:03:46.444Z,8.64
2016-07-30T02:04:46.464Z,8.67
2016-07-30T02:05:46.419Z,8.6
2016-07-30T02:06:46.431Z,8.75
2016-07-30T02:07:46.413Z,8.73
2016-07-30T02:08:46.422Z,8.7
2016-07-30T02:09:46.421Z,8.61
2016-07-30T02:10:46.407Z,8.65
2016-07-30T02:11:46.400Z,8.7
2016-07-30T02:12:46.395Z,8.57
2016-07-30T02:13:46.383Z,8.61
2016-07-30T02:14:46.371Z,8.64
2016-07-30T02:15:46.357Z,8.65
2016-07-30T02:16:46.369Z,8.67
2016-07-30T02:17:46.357Z,8.68
2016-07-30T02:18:46.345Z,8.7
2016-07-30T02:19:46.318Z,8.68
2016-07-30T02:20:46.317Z,8.63
2016-07-30T02:21:46.328Z,8.55
2016-07-30T02:22:46.325Z,8.63
2016-07-30T02:23:46.308Z,8.58
2016-07-30T02:24:46.280Z,8.57
2016-07-30T02:25:46.269Z,8.61
2016-07-30T02:26:46.286Z,8.54
2016-07-30T02:27:46.256Z,8.5
2016-07-30T02:28:46.262Z,8.57
2016-07-30T02:29:46.243Z,8.5
2016-07-30T02:30:46.271Z,8.43
2016-07-30T02:31:46.225Z,8.5
2016-07-30T02:32:46.239Z,8.52
2016-07-30T02:33:46.237Z,8.52
2016-07-30T02:34:46.239Z,8.52
2016-07-30T02:35:46.230Z,8.52
2016-07-30T02:36:46.248Z,8.43
2016-07-30T02:37:46.200Z,8.54
2016-07-30T02:38:46.183Z,8.46
2016-07-30T02:39:46.176Z,8.52
2016-07-30T02:40:46.184Z,8.5
2016-07-30T02:41:46.165Z,8.63
2016-07-30T02:42:46.154Z,8.58
2016-07-30T02:43:46.134Z,8.64
2016-07-30T02:44:46.155Z,8.5
2016-07-30T02:45:46.138Z,8.5
2016-07-30T02:46:46.130Z,8.46
2016-07-30T02:47:46.127Z,8.5
2016-07-30T02:48:46.126Z,8.5
2016-07-30T02:49:46.113Z,8.5
2016-07-30T02:50:46.108Z,8.54
2016-07-30T02:51:46.086Z,8.49
2016-07-30T02:52:46.071Z,8.52
2016-07-30T02:53:46.072Z,8.47
2016-07-30T02:54:46.049Z,8.42
2016-07-30T02:55:46.059Z,8.39
2016-07-30T02:56:46.062Z,8.42
2016-07-30T02:57:46.058Z,8.43
2016-07-30T02:58:46.029Z,8.45
2016-07-30T02:59:46.024Z,8.52
2016-07-30T03:00:46.038Z,8.5
2016-07-30T03:01:46.000Z,8.49
2016-07-30T03:02:46.004Z,8.6
2016-07-30T03:03:46.020Z,8.5
2016-07-30T03:04:46.003Z,8.49
2016-07-30T03:05:45.974Z,8.5
2016-07-30T03:06:45.966Z,8.54
2016-07-30T03:07:45.984Z,8.6
2016-07-30T03:08:45.954Z,8.6
2016-07-30T03:09:45.939Z,8.47
2016-07-30T03:10:45.937Z,8.46
2016-07-30T03:11:45.960Z,8.54
2016-07-30T03:12:45.922Z,8.57
2016-07-30T03:13:45.921Z,8.76
2016-07-30T03:14:45.925Z,8.67
2016-07-30T03:15:45.911Z,8.55
2016-07-30T03:16:45.898Z,8.57
2016-07-30T03:17:45.908Z,8.73
2016-07-30T03:18:45.876Z,8.64
2016-07-30T03:19:45.905Z,8.7
2016-07-30T03:20:45.877Z,8.58
2016-07-30T03:21:45.872Z,8.46
2016-07-30T03:22:45.880Z,8.46
2016-07-30T03:23:45.869Z,8.5
2016-07-30T03:24:45.867Z,8.52
2016-07-30T03:25:45.849Z,8.5
2016-07-30T03:26:45.842Z,8.52
2016-07-30T03:27:45.846Z,8.63
2016-07-30T03:28:45.821Z,8.67
2016-07-30T03:29:45.831Z,8.65
2016-07-30T03:30:45.827Z,8.61
2016-07-30T03:31:45.786Z,8.57
2016-07-30T03:32:45.777Z,8.54
2016-07-30T03:33:45.799Z,8.58
2016-07-30T03:34:45.779Z,8.57
2016-07-30T03:35:45.790Z,8.61
2016-07-30T03:36:45.984Z,8.47
2016-07-30T03:37:45.779Z,8.47
2016-07-30T03:38:45.752Z,8.42
2016-07-30T03:39:45.726Z,8.5
2016-07-30T03:40:45.741Z,8.49
2016-07-30T03:41:45.745Z,8.5
2016-07-30T03:42:45.738Z,8.5
2016-07-30T03:43:45.703Z,8.5
2016-07-30T03:44:45.700Z,8.47
2016-07-30T03:45:45.709Z,8.61
2016-07-30T03:46:45.688Z,8.5
2016-07-30T03:47:45.697Z,8.42
2016-07-30T03:48:45.679Z,8.4
2016-07-30T03:49:45.679Z,8.39
2016-07-30T03:50:45.660Z,8.45
2016-07-30T03:51:45.655Z,8.49
2016-07-30T03:52:45.671Z,8.54
2016-07-30T03:53:45.643Z,8.52
2016-07-30T03:54:45.653Z,8.52
2016-07-30T03:55:45.619Z,8.47
2016-07-30T03:56:45.634Z,8.49
2016-07-30T03:57:45.612Z,8.54
2016-07-30T03:58:45.590Z,8.5
2016-07-30T03:59:45.602Z,8.52
2016-07-30T04:00:45.589Z,8.47
2016-07-30T04:01:45.599Z,8.49
2016-07-30T04:02:45.571Z,8.49
2016-07-30T04:03:45.566Z,8.57
2016-07-30T04:04:45.565Z,8.47
2016-07-30T04:05:45.536Z,8.46
2016-07-30T04:06:45.564Z,8.46
2016-07-30T04:08:45.543Z,8.64
2016-07-30T04:09:45.521Z,8.49
2016-07-30T04:10:45.513Z,8.5
2016-07-30T04:11:45.519Z,8.45
2016-07-30T04:12:45.495Z,8.42
2016-07-30T04:13:45.509Z,8.43
2016-07-30T04:14:45.493Z,8.49
2016-07-30T04:15:45.466Z,8.46
2016-07-30T04:16:45.460Z,8.46
2016-07-30T04:17:45.449Z,8.46
2016-07-30T04:18:45.455Z,8.5
2016-07-30T04:19:45.449Z,8.54
2016-07-30T04:20:45.436Z,8.5
2016-07-30T04:21:45.429Z,8.49
2016-07-30T04:22:46.120Z,8.49
2016-07-30T04:23:45.424Z,8.46
2016-07-30T04:24:45.427Z,8.5
2016-07-30T04:25:45.401Z,8.5
2016-07-30T04:26:45.408Z,8.42
2016-07-30T04:27:45.378Z,8.43
2016-07-30T04:28:45.392Z,8.4
2016-07-30T04:29:45.364Z,8.42
2016-07-30T04:30:45.365Z,8.46
2016-07-30T04:31:45.355Z,8.43
2016-07-30T04:32:45.337Z,8.45
2016-07-30T04:33:45.344Z,8.37
2016-07-30T04:34:45.319Z,8.32
2016-07-30T04:35:45.333Z,8.37
2016-07-30T04:36:45.409Z,8.36
2016-07-30T04:37:45.283Z,8.45
2016-07-30T04:38:45.308Z,8.47
2016-07-30T04:39:45.287Z,8.46
2016-07-30T04:40:45.293Z,8.49
2016-07-30T04:41:45.273Z,8.42
2016-07-30T04:42:45.276Z,8.39
2016-07-30T04:43:45.266Z,8.4
2016-07-30T04:44:45.250Z,8.36
2016-07-30T04:45:45.223Z,8.4
2016-07-30T04:46:45.238Z,8.29
2016-07-30T04:47:45.238Z,8.42
2016-07-30T04:48:45.215Z,8.86
2016-07-30T04:49:45.228Z,9.04
2016-07-30T04:50:45.199Z,9.16
2016-07-30T04:51:45.213Z,9.35
2016-07-30T04:52:45.176Z,9.65
2016-07-30T04:53:45.162Z,9.83
2016-07-30T04:54:45.160Z,9.86
2016-07-30T04:55:45.167Z,9.89
2016-07-30T04:56:45.170Z,9.89
2016-07-30T04:57:45.144Z,9.95
2016-07-30T04:58:45.850Z,9.88
2016-07-30T04:59:45.112Z,10.16
2016-07-30T05:00:45.137Z,10.46
2016-07-30T05:01:45.135Z,10.47
2016-07-30T05:02:45.125Z,10.49
2016-07-30T05:03:45.108Z,10.18
2016-07-30T05:04:45.120Z,10.34
2016-07-30T05:05:45.090Z,10.54
2016-07-30T05:06:45.080Z,10.69
2016-07-30T05:07:45.062Z,10.73
2016-07-30T05:08:45.072Z,10.8
2016-07-30T05:09:45.059Z,10.8
2016-07-30T05:10:45.053Z,10.66
2016-07-30T05:11:45.066Z,10.31
2016-07-30T05:12:45.034Z,10.22
2016-07-30T05:13:45.037Z,10.34
2016-07-30T05:14:45.033Z,10.26
2016-07-30T05:15:45.030Z,10.32
2016-07-30T05:16:45.015Z,10.54
2016-07-30T05:17:45.024Z,10.78
2016-07-30T05:18:45.018Z,10.68
2016-07-30T05:19:44.988Z,10.17
2016-07-30T05:20:44.987Z,10.44
2016-07-30T05:21:44.975Z,10.58
2016-07-30T05:22:44.977Z,10.54
2016-07-30T05:23:44.969Z,10.42
2016-07-30T05:24:45.667Z,10.58
2016-07-30T05:25:44.940Z,10.65
2016-07-30T05:26:44.972Z,10.95
2016-07-30T05:27:44.927Z,11.11
2016-07-30T05:28:44.932Z,11.27
2016-07-30T05:29:44.922Z,11.53
2016-07-30T05:30:44.924Z,11.63
2016-07-30T05:31:44.902Z,11.59
2016-07-30T05:32:44.930Z,11.98
2016-07-30T05:33:44.907Z,12.3
2016-07-30T05:34:44.892Z,12.18
2016-07-30T05:35:44.894Z,12.13
2016-07-30T05:36:45.576Z,12.01
2016-07-30T05:37:44.873Z,12.01
2016-07-30T05:38:44.872Z,12.18
2016-07-30T05:39:44.864Z,12.4
2016-07-30T05:40:44.843Z,12.43
2016-07-30T05:41:44.866Z,12.16
2016-07-30T05:42:44.838Z,12.03
2016-07-30T05:43:44.842Z,11.77
2016-07-30T05:44:44.819Z,11.54
2016-07-30T05:45:44.830Z,11.81
2016-07-30T05:46:44.803Z,11.79
2016-07-30T05:47:44.813Z,12.03
2016-07-30T05:48:44.820Z,12.54
2016-07-30T05:49:44.806Z,12.54
2016-07-30T05:50:44.808Z,12.03
2016-07-30T05:51:44.803Z,12.08
2016-07-30T05:52:44.790Z,12.18
2016-07-30T05:53:44.774Z,12.49
2016-07-30T05:54:44.800Z,12.3
2016-07-30T05:55:44.779Z,12.13
2016-07-30T05:56:44.771Z,11.78
2016-07-30T05:57:44.770Z,11.7
2016-07-30T05:58:44.730Z,11.3
2016-07-30T05:59:44.763Z,11.12
2016-07-30T06:00:46.160Z,11.53
2016-07-30T06:01:44.722Z,11.59
2016-07-30T06:02:44.713Z,12.07
2016-07-30T06:03:44.740Z,12.05
2016-07-30T06:04:44.732Z,11.88
2016-07-30T06:05:44.719Z,12.08
2016-07-30T06:06:44.695Z,11.48
2016-07-30T06:07:44.714Z,11.9
2016-07-30T06:08:44.691Z,12.11
2016-07-30T06:09:44.694Z,12.21
2016-07-30T06:10:44.700Z,12.05
2016-07-30T06:11:44.657Z,11.28
2016-07-30T06:12:44.675Z,11.28
2016-07-30T06:13:44.674Z,11.74
2016-07-30T06:14:44.647Z,11.98
2016-07-30T06:15:44.644Z,11.85
2016-07-30T06:16:44.651Z,11.69
2016-07-30T06:17:44.649Z,11.35
2016-07-30T06:18:44.651Z,11.6
2016-07-30T06:19:44.649Z,11.69
2016-07-30T06:20:44.630Z,11.23
2016-07-30T06:21:44.612Z,11.24
2016-07-30T06:22:44.620Z,11.44
2016-07-30T06:23:44.605Z,11.38
2016-07-30T06:24:44.625Z,11.56
2016-07-30T06:25:44.604Z,11.64
2016-07-30T06:26:44.582Z,11.36
2016-07-30T06:27:44.569Z,11.2
2016-07-30T06:28:44.554Z,10.9
2016-07-30T06:29:44.574Z,11.46
2016-07-30T06:30:44.575Z,12.05
2016-07-30T06:31:44.554Z,12.49
2016-07-30T06:32:44.555Z,12.18
2016-07-30T06:33:44.536Z,12.05
2016-07-30T06:34:44.523Z,12.31
2016-07-30T06:35:44.523Z,12.54
2016-07-30T06:36:44.535Z,12.95
2016-07-30T06:37:44.532Z,12.95
2016-07-30T06:38:44.512Z,13.06
2016-07-30T06:39:44.527Z,13.24
2016-07-30T06:40:44.495Z,13.43
2016-07-30T06:41:44.493Z,13.07
2016-07-30T06:42:44.491Z,13.35
2016-07-30T06:43:44.476Z,13.71
2016-07-30T06:44:44.470Z,14.16
2016-07-30T06:45:44.458Z,13.88
2016-07-30T06:46:44.461Z,13.88
2016-07-30T06:47:44.463Z,14.34
2016-07-30T06:48:44.450Z,14.64
2016-07-30T06:49:44.463Z,15.11
2016-07-30T06:50:44.449Z,14.54
2016-07-30T06:51:45.162Z,13.83
2016-07-30T06:52:44.448Z,13.71
2016-07-30T06:53:44.427Z,14.11
2016-07-30T06:54:44.436Z,13.98
2016-07-30T06:55:44.419Z,14.04
2016-07-30T06:56:44.437Z,13.75
2016-07-30T06:57:44.409Z,13.88
2016-07-30T06:58:44.406Z,13.99
2016-07-30T06:59:44.393Z,14.36
2016-07-30T07:00:44.391Z,14.64
2016-07-30T07:01:44.386Z,14.93
2016-07-30T07:02:44.399Z,15.25
2016-07-30T07:03:44.398Z,15.04
2016-07-30T07:04:44.380Z,14.69
2016-07-30T07:05:44.381Z,13.73
2016-07-30T07:06:44.391Z,13.76
2016-07-30T07:07:44.381Z,13.96
2016-07-30T07:08:44.379Z,14.41
2016-07-30T07:09:45.067Z,14.48
2016-07-30T07:10:44.356Z,15
2016-07-30T07:11:44.351Z,15.04
2016-07-30T07:12:44.352Z,15.27
2016-07-30T07:13:44.336Z,15.16
2016-07-30T07:14:44.346Z,15.22
2016-07-30T07:15:44.330Z,15.6
2016-07-30T07:16:44.351Z,15.78
2016-07-30T07:17:44.330Z,14.52
2016-07-30T07:18:44.333Z,14.54
2016-07-30T07:19:44.323Z,15.13
2016-07-30T07:20:44.336Z,15.51
2016-07-30T07:21:44.310Z,15.8
2016-07-30T07:22:44.305Z,15.89
2016-07-30T07:23:44.305Z,15.6
2016-07-30T07:24:44.320Z,14.95
2016-07-30T07:25:44.315Z,15.12
2016-07-30T07:26:44.281Z,15.18
2016-07-30T07:27:44.295Z,15.25
2016-07-30T07:28:44.303Z,15.01
2016-07-30T07:29:44.304Z,13.72
2016-07-30T07:30:44.296Z,13.09
2016-07-30T07:31:44.290Z,13.09
2016-07-30T07:32:44.294Z,13.12
2016-07-30T07:33:44.258Z,13.75
2016-07-30T07:34:44.268Z,13.65
2016-07-30T07:35:44.248Z,13.43
2016-07-30T07:36:44.269Z,13.61
2016-07-30T07:37:44.271Z,14.41
2016-07-30T07:38:44.258Z,14.79
2016-07-30T07:39:44.232Z,14.21
2016-07-30T07:40:44.259Z,14.35
2016-07-30T07:41:44.245Z,14.42
2016-07-30T07:42:44.248Z,14.74
2016-07-30T07:43:44.255Z,14.93
2016-07-30T07:44:44.215Z,14.86
2016-07-30T07:45:44.226Z,13.46
2016-07-30T07:46:44.220Z,12.56
2016-07-30T07:47:44.224Z,12.89
2016-07-30T07:48:44.219Z,13.07
2016-07-30T07:49:44.207Z,13.03
2016-07-30T07:50:44.204Z,12.87
2016-07-30T07:51:44.223Z,12.92
2016-07-30T07:52:44.184Z,13.47
2016-07-30T07:53:44.207Z,13.87
2016-07-30T07:54:44.187Z,14.36
2016-07-30T07:55:44.189Z,14.41
2016-07-30T07:56:44.201Z,14.3
2016-07-30T07:57:44.186Z,13.21
2016-07-30T07:58:44.170Z,12.84
2016-07-30T07:59:44.172Z,13.1
2016-07-30T08:00:44.180Z,13.36
2016-07-30T08:01:44.166Z,14.24
2016-07-30T08:02:44.147Z,14.29
2016-07-30T08:03:44.148Z,14.45
2016-07-30T08:04:44.143Z,14.6
2016-07-30T08:05:44.134Z,14.94
2016-07-30T08:06:44.143Z,14.46
2016-07-30T08:07:44.132Z,13.63
2016-07-30T08:09:44.126Z,14.08
2016-07-30T08:10:44.114Z,14.97
2016-07-30T08:11:44.104Z,15.03
2016-07-30T08:12:44.117Z,14.56
2016-07-30T08:13:44.123Z,15.03
2016-07-30T08:14:44.114Z,14.48
2016-07-30T08:15:44.107Z,14.6
2016-07-30T08:16:44.097Z,14.71
2016-07-30T08:17:44.089Z,14.93
2016-07-30T08:18:44.090Z,14.97
2016-07-30T08:19:44.084Z,14.85
2016-07-30T08:20:44.100Z,13.62
2016-07-30T08:21:44.095Z,12.92
2016-07-30T08:22:44.077Z,13.69
2016-07-30T08:23:44.065Z,14.16
2016-07-30T08:24:44.091Z,14.74
2016-07-30T08:25:44.061Z,14.27
2016-07-30T08:26:44.055Z,13.54
2016-07-30T08:27:44.042Z,12.55
2016-07-30T08:28:44.042Z,12.85
2016-07-30T08:29:44.061Z,12.49
2016-07-30T08:30:44.042Z,12.63
2016-07-30T08:31:44.033Z,12.89
2016-07-30T08:32:44.038Z,13.36
2016-07-30T08:33:44.044Z,13.86
2016-07-30T08:34:44.035Z,14.38
2016-07-30T08:35:44.016Z,13.1
2016-07-30T08:36:44.016Z,12.62
2016-07-30T08:37:44.152Z,13.38
2016-07-30T08:38:44.026Z,14.01
2016-07-30T08:39:44.015Z,15.18
2016-07-30T08:40:44.007Z,15.86
2016-07-30T08:41:44.003Z,15.44
2016-07-30T08:42:44.006Z,15.37
2016-07-30T08:43:44.002Z,16.06
2016-07-30T08:44:43.992Z,16.07
2016-07-30T08:45:43.986Z,15.99
2016-07-30T08:46:43.989Z,16.44
2016-07-30T08:47:43.980Z,16.5
2016-07-30T08:48:43.957Z,17.38
2016-07-30T08:49:43.953Z,16.57
2016-07-30T08:50:43.977Z,16.33
2016-07-30T08:51:43.982Z,16.98
2016-07-30T08:52:43.966Z,16.95
2016-07-30T08:53:43.940Z,17.33
2016-07-30T08:54:43.956Z,17.32
2016-07-30T08:55:43.958Z,17.36
2016-07-30T08:56:43.961Z,17.14
2016-07-30T08:57:43.945Z,17.15
2016-07-30T08:58:43.937Z,16.4
2016-07-30T08:59:43.963Z,16.11
2016-07-30T09:00:43.945Z,16.1
2016-07-30T09:01:43.927Z,16.4
2016-07-30T09:02:43.917Z,17.02
2016-07-30T09:03:43.914Z,17.7
2016-07-30T09:04:43.930Z,17.33
2016-07-30T09:05:43.923Z,17.58
2016-07-30T09:06:43.924Z,17.63
2016-07-30T09:07:43.920Z,17.25
2016-07-30T09:08:43.932Z,17.53
2016-07-30T09:09:43.908Z,18.25
2016-07-30T09:10:43.935Z,18.57
2016-07-30T09:11:43.907Z,17.65
2016-07-30T09:12:43.908Z,17.32
2016-07-30T09:13:43.893Z,17.3
2016-07-30T09:14:43.905Z,17.28
2016-07-30T09:15:43.886Z,17.89
2016-07-30T09:16:43.890Z,17.95
2016-07-30T09:17:43.907Z,17.6
2016-07-30T09:18:43.888Z,17.96
2016-07-30T09:19:43.895Z,18.36
2016-07-30T09:20:43.891Z,18.69
2016-07-30T09:21:43.874Z,18.75
2016-07-30T09:22:43.888Z,18.11
2016-07-30T09:23:43.887Z,17.94
2016-07-30T09:24:43.884Z,17.4
2016-07-30T09:25:43.896Z,17.33
2016-07-30T09:26:43.898Z,17.74
2016-07-30T09:27:43.871Z,17.94
2016-07-30T09:28:43.891Z,18.23
2016-07-30T09:29:43.852Z,18.02
2016-07-30T09:30:43.898Z,17.65
2016-07-30T09:31:44.550Z,16.95
2016-07-30T09:32:43.854Z,16.82
2016-07-30T09:33:43.846Z,17.47
2016-07-30T09:34:43.871Z,17.65
2016-07-30T09:35:43.858Z,18.05
2016-07-30T09:36:43.859Z,17.71
2016-07-30T09:37:43.902Z,17.4
2016-07-30T09:38:43.851Z,17.22
2016-07-30T09:39:43.866Z,17.2
2016-07-30T09:40:43.841Z,17.3
2016-07-30T09:41:43.867Z,17.66
2016-07-30T09:42:43.824Z,18.13
2016-07-30T09:43:43.843Z,17.79
2016-07-30T09:44:43.856Z,18.1
2016-07-30T09:45:43.842Z,18.11
2016-07-30T09:46:43.844Z,17.53
2016-07-30T09:47:43.846Z,17.65
2016-07-30T09:48:43.812Z,17.28
2016-07-30T09:49:43.845Z,17.74
2016-07-30T09:50:43.840Z,17.36
2016-07-30T09:51:43.814Z,17.35
2016-07-30T09:52:43.823Z,17.02
2016-07-30T09:53:43.827Z,17.43
2016-07-30T09:54:43.825Z,17.79
2016-07-30T09:55:43.821Z,18.54
2016-07-30T09:56:43.821Z,18.69
2016-07-30T09:57:43.808Z,18.62
2016-07-30T09:58:43.809Z,18.5
2016-07-30T09:59:43.815Z,19.09
2016-07-30T10:00:43.799Z,19.13
2016-07-30T10:01:43.829Z,18.29
2016-07-30T10:02:43.807Z,17.18
2016-07-30T10:03:43.804Z,16.84
2016-07-30T10:04:43.824Z,17.32
2016-07-30T10:05:43.808Z,17.39
2016-07-30T10:06:43.802Z,17.27
2016-07-30T10:07:43.794Z,16.32
2016-07-30T10:08:43.795Z,15.74
2016-07-30T10:09:43.802Z,16.34
2016-07-30T10:10:43.770Z,16.23
2016-07-30T10:11:43.807Z,16.7
2016-07-30T10:12:43.797Z,16.3
2016-07-30T10:13:43.763Z,15.77
2016-07-30T10:14:43.781Z,15.77
2016-07-30T10:15:43.785Z,15.99
2016-07-30T10:16:43.779Z,16.84
2016-07-30T10:17:43.785Z,16.87
2016-07-30T10:18:43.771Z,16.8
2016-07-30T10:19:43.753Z,17.15
2016-07-30T10:20:43.794Z,16.65
2016-07-30T10:21:43.759Z,15.13
2016-07-30T10:22:43.755Z,14.75
2016-07-30T10:23:43.768Z,15.27
2016-07-30T10:24:43.767Z,15.15
2016-07-30T10:25:43.776Z,15.41
2016-07-30T10:26:43.762Z,16.14
2016-07-30T10:27:43.741Z,16.99
2016-07-30T10:28:43.749Z,17.62
2016-07-30T10:29:43.762Z,16.66
2016-07-30T10:30:43.748Z,16.34
2016-07-30T10:31:43.762Z,15.74
2016-07-30T10:32:43.740Z,15.43
2016-07-30T10:33:43.759Z,15.93
2016-07-30T10:34:43.720Z,16.16
2016-07-30T10:35:43.732Z,16.54
2016-07-30T10:36:43.749Z,16.77
2016-07-30T10:37:43.735Z,16.13
2016-07-30T10:38:43.715Z,15.67
2016-07-30T10:39:43.730Z,15.91
2016-07-30T10:40:43.727Z,14.67
2016-07-30T10:41:43.721Z,14.26
2016-07-30T10:42:43.722Z,13.79
2016-07-30T10:43:43.703Z,14.53
2016-07-30T10:44:43.732Z,14.29
2016-07-30T10:45:43.699Z,13.9
2016-07-30T10:46:43.711Z,13.63
2016-07-30T10:47:43.702Z,14.04
2016-07-30T10:48:43.692Z,13.98
2016-07-30T10:49:43.703Z,14.69
2016-07-30T10:50:43.676Z,14.38
2016-07-30T10:51:43.678Z,14.48
2016-07-30T10:52:43.706Z,14.29
2016-07-30T10:53:43.686Z,13.93
2016-07-30T10:54:43.676Z,13.5
2016-07-30T10:55:43.678Z,13.41
2016-07-30T10:56:43.674Z,13.28
2016-07-30T10:57:43.678Z,13.32
2016-07-30T10:58:43.671Z,14.06
2016-07-30T10:59:43.669Z,14.98
2016-07-30T11:00:43.654Z,14.95
2016-07-30T11:01:43.644Z,14.38
2016-07-30T11:02:43.660Z,14.52
2016-07-30T11:03:43.652Z,15.09
2016-07-30T11:04:43.632Z,15.07
2016-07-30T11:05:43.646Z,14.87
2016-07-30T11:06:43.657Z,14.72
2016-07-30T11:07:43.635Z,14.29
2016-07-30T11:08:43.640Z,14.49
2016-07-30T11:09:43.624Z,14.53
2016-07-30T11:10:43.621Z,14.36
2016-07-30T11:11:43.607Z,14.41
2016-07-30T11:12:43.614Z,14.83
2016-07-30T11:13:43.632Z,14.52
2016-07-30T11:14:43.613Z,14.85
2016-07-30T11:15:43.625Z,15.33
2016-07-30T11:16:43.597Z,15.73
2016-07-30T11:17:43.618Z,15.74
2016-07-30T11:18:43.577Z,15.96
2016-07-30T11:19:43.620Z,16.07
2016-07-30T11:20:43.596Z,16.55
2016-07-30T11:21:43.590Z,16.78
2016-07-30T11:22:43.595Z,16.5
2016-07-30T11:23:43.576Z,16.14
2016-07-30T11:24:43.576Z,15.92
2016-07-30T11:25:43.579Z,16.23
2016-07-30T11:26:43.585Z,16.66
2016-07-30T11:27:43.583Z,16.98
2016-07-30T11:28:43.576Z,17.36
2016-07-30T11:29:43.578Z,17.46
2016-07-30T11:30:43.558Z,17.36
2016-07-30T11:31:43.566Z,17.3
2016-07-30T11:32:43.547Z,17.06
2016-07-30T11:33:43.546Z,16.8
2016-07-30T11:34:43.573Z,16.55
2016-07-30T11:35:43.556Z,16.67
2016-07-30T11:36:43.562Z,16.47
2016-07-30T11:37:43.565Z,16.73
2016-07-30T11:38:43.547Z,16.63
2016-07-30T11:39:43.576Z,15.18
2016-07-30T11:40:43.546Z,14.78
2016-07-30T11:41:43.540Z,15.16
2016-07-30T11:42:43.539Z,15.81
2016-07-30T11:43:43.553Z,15.89
2016-07-30T11:44:43.517Z,15.77
2016-07-30T11:45:43.540Z,15.49
2016-07-30T11:46:43.526Z,15
2016-07-30T11:47:43.513Z,14.87
2016-07-30T11:48:43.517Z,14.94
2016-07-30T11:49:43.519Z,14.67
2016-07-30T11:50:43.520Z,14.44
2016-07-30T11:51:43.511Z,14.53
2016-07-30T11:52:43.529Z,14.6
2016-07-30T11:53:43.526Z,14.54
2016-07-30T11:55:43.520Z,14.35
2016-07-30T11:56:43.500Z,14.02
2016-07-30T11:57:43.491Z,13.9
2016-07-30T11:58:43.496Z,14.41
2016-07-30T11:59:43.475Z,15.04
2016-07-30T12:00:43.490Z,16.07
2016-07-30T12:01:43.495Z,16.84
2016-07-30T12:02:43.484Z,17.36
2016-07-30T12:03:43.472Z,16.98
2016-07-30T12:04:43.461Z,17.38
2016-07-30T12:05:43.466Z,17.73
2016-07-30T12:06:43.466Z,18.1
2016-07-30T12:07:43.485Z,18.44
2016-07-30T12:08:43.482Z,18.5
2016-07-30T12:09:43.464Z,18.01
2016-07-30T12:10:43.454Z,18.05
2016-07-30T12:11:43.440Z,18.09
2016-07-30T12:12:43.462Z,17.84
2016-07-30T12:13:43.471Z,18.13
2016-07-30T12:14:43.452Z,18.02
2016-07-30T12:15:43.435Z,17.21
2016-07-30T12:16:43.438Z,16.5
2016-07-30T12:17:43.450Z,16.03
2016-07-30T12:18:43.438Z,15.35
2016-07-30T12:19:43.440Z,14.63
2016-07-30T12:20:43.455Z,14.45
2016-07-30T12:21:43.451Z,14.74
2016-07-30T12:22:43.435Z,15.52
2016-07-30T12:23:43.455Z,16.29
2016-07-30T12:24:43.452Z,17.49
2016-07-30T12:25:43.447Z,18.26
2016-07-30T12:26:43.423Z,18.91
2016-07-30T12:27:43.424Z,18.51
2016-07-30T12:28:43.407Z,18.11
2016-07-30T12:29:43.436Z,17.84
2016-07-30T12:30:43.424Z,17.79
2016-07-30T12:31:43.431Z,18.07
2016-07-30T12:32:43.409Z,17.62
2016-07-30T12:33:43.424Z,17.55
2016-07-30T12:34:43.405Z,17.86
2016-07-30T12:35:43.413Z,18.51
2016-07-30T12:36:43.412Z,18.84
2016-07-30T12:37:43.393Z,18.86
2016-07-30T12:38:43.458Z,19.49
2016-07-30T12:39:43.400Z,19.49
2016-07-30T12:40:43.408Z,18.97
2016-07-30T12:41:43.427Z,18.56
2016-07-30T12:42:43.410Z,18.14
2016-07-30T12:43:43.406Z,18.01
2016-07-30T12:44:43.401Z,17.66
2016-07-30T12:45:43.403Z,16.84
2016-07-30T12:46:43.387Z,16.26
2016-07-30T12:47:43.396Z,15.78
2016-07-30T12:48:43.407Z,15.53
2016-07-30T12:49:43.403Z,15.03
2016-07-30T12:50:43.404Z,15.28
2016-07-30T12:51:43.409Z,15.92
2016-07-30T12:52:43.397Z,16.17
2016-07-30T12:53:43.386Z,16.3
2016-07-30T12:54:43.403Z,16.69
2016-07-30T12:55:43.394Z,17.06
2016-07-30T12:56:43.392Z,17.27
2016-07-30T12:57:43.390Z,17.14
2016-07-30T12:58:43.380Z,17.39
2016-07-30T12:59:43.392Z,17.87
2016-07-30T13:00:43.393Z,18.17
2016-07-30T13:01:43.373Z,17.92
2016-07-30T13:02:43.359Z,18.25
2016-07-30T13:03:43.369Z,18.41
2016-07-30T13:04:43.378Z,17.74
2016-07-30T13:05:43.362Z,17.6
2016-07-30T13:06:43.355Z,16.77
2016-07-30T13:07:43.365Z,16.92
2016-07-30T13:08:43.352Z,16.77